Weather observations for the past three days for
La Paz International Airport
Metric (Imperial)
Date Time (mst) Wind (kph) Vis. (km) Weather Sky Cond. Temperature (ºC) Relative Humidity Wind Chill (°C) Heat Index (°C) Pressure Precipitation (cm)
Air Dwpt 6 hour altimeter (cm) sea level (mb) 1 hr 3 hr 6 hr
Max. Min.
30 22:40 S 9 12.87 Clear SKC 29 25 79% 35 76.02 1013.1
30 21:40 S 9 12.87 Clear SKC 30 24 70% 35 76.02 0.0
30 20:40 S 11 12.87 Clear SKC 30 24 70% 35 75.97 0.0
30 19:40 SW 9 12.87 A Few Clouds FEW200 31 24 66% 37 75.92 1011.7
30 18:40 S 11 16.09 Partly Cloudy FEW030 FEW100 SCT200 32 24 63% 38 75.87 0.0
30 17:40 S 22 16.09 Partly Cloudy FEW030 FEW100 SCT200 33 24 59% 39 75.82 0.0
30 16:40 S 13 16.09 Mostly Cloudy FEW100 BKN200 33 23 56% 38 75.79 1009.9
30 15:40 S 9 16.09 Mostly Cloudy FEW030 SCT100 BKN200 31 20 52% 33 75.82 0.0
30 14:40 SW 20 16.09 Mostly Cloudy BKN030CB 32 20 49% 34 75.82 0.0
30 14:15 S 31 9.66 Blowing Sand FEW030CB SCT200 31 21 55% 34 75.84 0.0
30 13:41 N 13 16.09 A Few Clouds FEW030CB FEW200 37 24 47% 44 75.82 1010.3
30 12:41 N 13 16.09 A Few Clouds FEW030CB 36 23 47% 42 75.92 0.0
30 11:43 NW 9 16.09 A Few Clouds FEW025TCU FEW200 36 23 47% 42 76 0.0
30 10:40 N 6 16.09 A Few Clouds FEW025 FEW200 35 23 50% 41 76.07 1013.4
30 09:40 Calm 16.09 A Few Clouds FEW025 FEW200 34 23 53% 39 76.1 0.0
30 08:42 S 6 16.09 A Few Clouds FEW200 32 24 63% 38 76.1 0.0
30 07:40 S 7 16.09 A Few Clouds FEW100 FEW200 30 25 75% 36 76.1 1013.9
30 06:40 Calm 16.09 Partly Cloudy FEW025 FEW080 SCT200 28 25 84% 33 76.1 0.0
30 05:40 S 13 16.09 A Few Clouds FEW080 FEW200 27 25 89% 31 76.07 0.0
29 22:40 S 9 12.87 Partly Cloudy FEW030 FEW100 SCT200 29 25 79% 35 76.12 1014.4
29 21:40 S 9 12.87 Partly Cloudy FEW030 FEW100 SCT200 30 25 75% 36 76.1 0.0
29 20:40 SE 7 12.87 Partly Cloudy FEW030 FEW100 SCT200 31 25 70% 38 76.07 0.0
29 19:40 S 11 12.87 Mostly Cloudy FEW100 BKN200 31 25 70% 38 75.97 1012.5
29 18:40 S 15 16.09 Mostly Cloudy FEW100 BKN200 32 25 67% 39 75.95 0.0
29 17:40 S 15 16.09 Mostly Cloudy FEW100 BKN200 33 25 63% 41 75.84 0.0
29 16:40 S 13 16.09 Mostly Cloudy FEW100 BKN200 32 24 63% 38 75.79 1010.1
29 15:40 S 11 12.87 Mostly Cloudy FEW030 BKN200 32 23 59% 37 75.82 0.0
29 14:41 W 9 12.87 Mostly Cloudy BKN030CB BKN200 31 23 62% 35 75.84 0.0
29 13:40 E 7 16.09 Thunderstorm SCT030CB SCT200 38 24 45% 46 75.79 1009.8
29 12:45 NE 24 16.09 Partly Cloudy SCT030CB SCT200 38 25 47% 47 75.82 0.0
29 11:43 N 13 16.09 A Few Clouds FEW030TCU FEW200 38 25 47% 47 75.84 0.0
29 10:45 Calm 16.09 A Few Clouds FEW030 FEW220 37 24 47% 44 75.95 1011.9
29 09:40 Calm 16.09 A Few Clouds FEW220 36 26 56% 46 75.95 0.0
29 08:44 Calm 16.09 A Few Clouds FEW220 32 26 71% 41 75.97 0.0
29 07:40 Calm 16.09 A Few Clouds FEW010 FEW200 30 25 75% 36 75.97 1012.5
29 06:40 Calm 16.09 Partly Cloudy FEW025 FEW100 SCT200 28 25 84% 33 76 0.0
29 06:00 Calm 16.09 A Few Clouds FEW025TCU FEW100 28 25 84% 33 75.97 0.0
28 22:40 S 13 16.09 Clear SKC 31 25 70% 38 76 1012.6
28 21:40 SW 9 16.09 Clear SKC 32 26 71% 41 75.97 0.0
28 20:40 SW 11 16.09 Clear SKC 32 25 67% 39 75.87 0.0
28 19:40 S 7 16.09 Partly Cloudy SCT200 33 25 63% 41 75.87 1011.0
28 18:40 SW 11 16.09 Partly Cloudy SCT200 34 25 59% 42 75.77 0.0
28 17:46 S 19 16.09 Partly Cloudy SCT200 35 24 53% 42 75.69 0.0
28 16:40 W 15 16.09 Partly Cloudy SCT030CB SCT200 39 22 37% 44 75.67 1008.3
28 15:42 N 9 16.09 A Few Clouds FEW025 FEW100 39 23 40% 46 75.62 0.0
28 14:40 N 13 16.09 A Few Clouds FEW025 FEW100 39 23 40% 46 75.67 0.0
28 13:41 N 17 16.09 A Few Clouds FEW025 FEW100 38 25 47% 47 75.74 1009.2
28 12:40 N 15 16.09 A Few Clouds FEW025 FEW100 37 26 53% 48 75.82 0.0
28 11:41 N 17 16.09 A Few Clouds FEW025 FEW100 37 25 50% 46 75.87 0.0
28 10:40 N 11 16.09 A Few Clouds FEW025 FEW100 37 24 47% 44 75.92 1011.6
28 09:44 Calm 16.09 A Few Clouds FEW025 37 22 42% 42 75.95 0.0
28 08:42 S 9 16.09 A Few Clouds FEW025 FEW100 33 24 59% 39 75.95 0.0
28 07:40 SW 9 16.09 Partly Cloudy SCT100 31 26 75% 39 75.92 1012.0
28 06:40 SE 9 16.09 Mostly Cloudy BKN100 30 26 79% 37 75.92 0.0
Date Time (mst) Wind (kph) Vis. (km) Weather Sky Cond. Air Dwpt Max. Min. Relative Humidity Wind Chill (°C) Heat Index (°C) altimeter (cm) sea level (mb) 1 hr 3 hr 6 hr
6 hour
Temperature (ºC) Pressure Precipitation (cm)